Veblen, SD

4:45 AM CST on February 09, 2016 (GMT -0600)
joes ag supply | | Change Station
CLOSE
Current Station
Personal Weather Station
Location: Havana, ND
Elevation: 1276 ft
Nearby Weather Stations

Elev 1276 ft 45.95 °N, 97.62 °W | Updated 1 second ago

Clear
Clear
6.6 °F
Feels Like 7 °F
N
0.0
Wind Variable Wind from WSW
Gusts 0.0 mph

Today
High -- | Low -- °F
--% Chance of Precip.
Yesterday
High -- | Low -- °F
Precip. -- in
Pressure 30.24 in
Visibility -9999.0 miles
Clouds Scattered Clouds 5500 ft
Windchill 7 °F
Dew Point 2 °F
Humidity 81%
Rainfall 0.00 in
Snow Depth Not available.
7:41 AM 5:46 PM
New Moon, 1% visible
METAR KGWR 091035Z AUTO 33008KT SCT055 M12/M15 A3024 RMK AO1
Pressure 30.24 in
Visibility -9999.0 miles
Clouds Scattered Clouds 5500 ft
Windchill 7 °F
Dew Point 2 °F
Humidity 81%
Rainfall 0.00 in
Snow Depth Not available.
7:41 AM 5:46 PM
New Moon, 1% visible
METAR KGWR 091035Z AUTO 33008KT SCT055 M12/M15 A3024 RMK AO1

10-Day Weather Forecast

Almanac

Astronomy

Feb. 09, 2016 Rise Set
Actual Time
Civil Twilight
Nautical Twilight
Astronomical Twilight
Moon
Length of Visible Light
Length of Day
Tomorrow will be .
, % of the Moon is Illuminated

Today's Extremes

State Highs State Lows

Community

WunderPhotos

Upload Photos

1,891,565 photos uploaded!

WunderBlog® & News

Nearby

Air Quality

  Air Quality AQ Index Pollutant
Not available.

Snow Depth

Station Depth Elevation

Earthquake Activity

City Distance Mag. Time & Date
Minimum magnitude displayed is 2.5.

Coastal Water Temperatures

Place Temperature

Stations

Nearby Weather Stations

Station Location Temp. Windchill Dew Point Humidity Wind Precip. Elev Updated Type
                   

Watches & Warnings

There are currently no watches in effect.